createdAt,value
2023-03-02T07:58:58.672Z,17.93
2023-03-02T08:01:43.852Z,18.53
2023-03-02T08:04:28.792Z,19.08
2023-03-02T08:07:13.860Z,19.58
2023-03-02T08:09:58.735Z,19.98
2023-03-02T08:12:43.769Z,20.31
2023-03-02T08:15:29.068Z,20.58
2023-03-02T08:18:14.370Z,20.80
2023-03-02T08:20:59.160Z,20.98
2023-03-02T08:23:44.178Z,21.14
2023-03-02T08:26:29.080Z,21.26
2023-03-02T08:29:13.819Z,21.36
2023-03-02T08:31:59.187Z,21.43
2023-03-02T08:34:44.339Z,21.48
2023-03-02T08:37:29.389Z,21.52
2023-03-02T08:40:14.134Z,21.56
2023-03-02T08:42:58.893Z,21.57
2023-03-02T08:45:43.789Z,21.62
2023-03-02T08:48:28.697Z,21.63
2023-03-02T08:51:13.747Z,21.62
2023-03-02T08:53:58.792Z,21.63
2023-03-02T08:56:43.766Z,21.67
2023-03-02T08:59:28.760Z,21.72
2023-03-02T09:02:13.539Z,21.76
2023-03-02T09:04:58.454Z,21.81
2023-03-02T09:07:43.311Z,21.84
2023-03-02T09:10:28.287Z,21.87
2023-03-02T09:13:13.093Z,21.84
2023-03-02T09:15:58.736Z,21.89
2023-03-02T09:18:44.163Z,21.91
2023-03-02T09:21:29.481Z,21.96
2023-03-02T09:24:14.298Z,22.02
2023-03-02T09:26:59.287Z,22.05
2023-03-02T09:29:44.387Z,22.08
2023-03-02T09:32:29.393Z,22.13
2023-03-02T09:35:14.707Z,22.17
2023-03-02T09:37:59.896Z,22.22
2023-03-02T09:40:45.600Z,22.27
2023-03-02T09:43:30.813Z,22.30
2023-03-02T09:46:15.777Z,22.29
2023-03-02T09:49:02.590Z,22.34
2023-03-02T09:51:47.867Z,22.34
2023-03-02T09:54:32.874Z,22.33
2023-03-02T09:57:17.699Z,22.30
2023-03-02T10:00:16.473Z,22.30
2023-03-02T10:03:16.299Z,22.31
2023-03-02T10:06:02.209Z,22.29
